SAS2761 EKCH-EPWA
Flight info
| Callsign | SAS2761 |
|---|---|
| Flight time | 1h 5m |
| Altitude | 35000 |
| Route | SIMEG Z491 TELMO DCT KOLOB N195 ELPOL Y100 MALOX/N0401F230 L621 GRUDA N191 SORIX |
| Aircraft | A20N/M-SDE3FGIJ1RWXY/ALB1 |
Departure
| Time | 2026-05-07 21:25 |
|---|---|
| Airport | Copenhagen Kastrup Airport (EKCH) |
Arrival
| Time | 2026-05-07 22:30 |
|---|---|
| Airport | Warsaw Chopin Airport (EPWA) |
| Time | Latitude | Longitude | Altitude | Speed | Heading |
|---|---|---|---|---|---|
| 2026-05-07 20:57 | 55.62711 | 12.64456 | 21 ft | 0 kts | 102° |
| 2026-05-07 21:11 | 55.62715 | 12.64422 | 21 ft | 2 kts | 102° |
| 2026-05-07 21:12 | 55.62718 | 12.64396 | 21 ft | 2 kts | 102° |
| 2026-05-07 21:12 | 55.62721 | 12.64371 | 21 ft | 1 kts | 100° |
| 2026-05-07 21:12 | 55.62717 | 12.64351 | 21 ft | 1 kts | 33° |
| 2026-05-07 21:12 | 55.62703 | 12.64342 | 21 ft | 2 kts | 27° |
| 2026-05-07 21:13 | 55.62690 | 12.64331 | 21 ft | 2 kts | 21° |
| 2026-05-07 21:13 | 55.62676 | 12.64321 | 21 ft | 2 kts | 21° |
| 2026-05-07 21:13 | 55.62662 | 12.64312 | 21 ft | 2 kts | 22° |
| 2026-05-07 21:13 | 55.62649 | 12.64302 | 21 ft | 2 kts | 25° |
| 2026-05-07 21:14 | 55.62635 | 12.64290 | 21 ft | 2 kts | 28° |
| 2026-05-07 21:14 | 55.62622 | 12.64277 | 21 ft | 2 kts | 30° |
| 2026-05-07 21:14 | 55.62609 | 12.64263 | 21 ft | 2 kts | 33° |
| 2026-05-07 21:14 | 55.62597 | 12.64249 | 21 ft | 2 kts | 34° |
| 2026-05-07 21:15 | 55.62584 | 12.64234 | 21 ft | 2 kts | 33° |
| 2026-05-07 21:15 | 55.62572 | 12.64220 | 21 ft | 2 kts | 33° |
| 2026-05-07 21:15 | 55.62559 | 12.64205 | 21 ft | 2 kts | 33° |
| 2026-05-07 21:15 | 55.62548 | 12.64187 | 21 ft | 2 kts | 62° |
| 2026-05-07 21:16 | 55.62544 | 12.64161 | 21 ft | 2 kts | 86° |
| 2026-05-07 21:16 | 55.62546 | 12.64136 | 21 ft | 2 kts | 131° |
| 2026-05-07 21:16 | 55.62555 | 12.64115 | 21 ft | 2 kts | 120° |
| 2026-05-07 21:16 | 55.62563 | 12.64092 | 21 ft | 2 kts | 124° |
| 2026-05-07 21:17 | 55.62572 | 12.64070 | 22 ft | 2 kts | 123° |
| 2026-05-07 21:17 | 55.62580 | 12.64047 | 22 ft | 2 kts | 123° |
| 2026-05-07 21:17 | 55.62582 | 12.64043 | 22 ft | 0 kts | 123° |
| 2026-05-07 21:19 | 55.62578 | 12.64052 | 22 ft | 2 kts | 123° |
| 2026-05-07 21:19 | 55.62547 | 12.64136 | 21 ft | 10 kts | 123° |
| 2026-05-07 21:19 | 55.62504 | 12.64255 | 21 ft | 12 kts | 123° |
| 2026-05-07 21:19 | 55.62450 | 12.64381 | 21 ft | 13 kts | 130° |
| 2026-05-07 21:20 | 55.62392 | 12.64514 | 21 ft | 14 kts | 125° |
| 2026-05-07 21:20 | 55.62335 | 12.64666 | 21 ft | 15 kts | 122° |
| 2026-05-07 21:20 | 55.62263 | 12.64796 | 21 ft | 15 kts | 173° |
| 2026-05-07 21:20 | 55.62168 | 12.64727 | 21 ft | 15 kts | 213° |
| 2026-05-07 21:21 | 55.62077 | 12.64619 | 21 ft | 16 kts | 215° |
| 2026-05-07 21:21 | 55.61979 | 12.64516 | 22 ft | 16 kts | 199° |
| 2026-05-07 21:21 | 55.61867 | 12.64514 | 22 ft | 16 kts | 171° |
| 2026-05-07 21:21 | 55.61750 | 12.64556 | 22 ft | 17 kts | 169° |
| 2026-05-07 21:22 | 55.61638 | 12.64524 | 22 ft | 17 kts | 213° |
| 2026-05-07 21:22 | 55.61539 | 12.64408 | 22 ft | 17 kts | 213° |
| 2026-05-07 21:22 | 55.61434 | 12.64289 | 22 ft | 18 kts | 213° |
| 2026-05-07 21:22 | 55.61324 | 12.64161 | 22 ft | 19 kts | 213° |
| 2026-05-07 21:23 | 55.61205 | 12.64024 | 23 ft | 20 kts | 213° |
| 2026-05-07 21:23 | 55.61085 | 12.63886 | 23 ft | 20 kts | 213° |
| 2026-05-07 21:23 | 55.60964 | 12.63747 | 22 ft | 20 kts | 212° |
| 2026-05-07 21:23 | 55.60846 | 12.63611 | 22 ft | 20 kts | 213° |
| 2026-05-07 21:24 | 55.60737 | 12.63680 | 22 ft | 18 kts | 131° |
| 2026-05-07 21:24 | 55.60680 | 12.63871 | 22 ft | 15 kts | 71° |
| 2026-05-07 21:24 | 55.60768 | 12.64016 | 23 ft | 25 kts | 40° |
| 2026-05-07 21:24 | 55.61100 | 12.64532 | 24 ft | 100 kts | 43° |
| 2026-05-07 21:25 | 55.61787 | 12.65585 | 108 ft | 150 kts | 40° |
| 2026-05-07 21:25 | 55.62566 | 12.66784 | 728 ft | 152 kts | 41° |
| 2026-05-07 21:25 | 55.63345 | 12.68077 | 1437 ft | 154 kts | 40° |
| 2026-05-07 21:25 | 55.64154 | 12.69405 | 2015 ft | 163 kts | 45° |
| 2026-05-07 21:26 | 55.64664 | 12.71277 | 2448 ft | 186 kts | 86° |
| 2026-05-07 21:26 | 55.64176 | 12.73505 | 2895 ft | 211 kts | 128° |
| 2026-05-07 21:26 | 55.63081 | 12.75388 | 3323 ft | 234 kts | 136° |
| 2026-05-07 21:26 | 55.61811 | 12.77457 | 3871 ft | 254 kts | 134° |
| 2026-05-07 21:27 | 55.60500 | 12.79747 | 4604 ft | 266 kts | 132° |
| 2026-05-07 21:27 | 55.59222 | 12.82116 | 5626 ft | 267 kts | 131° |
| 2026-05-07 21:27 | 55.57954 | 12.84555 | 6718 ft | 266 kts | 130° |
| 2026-05-07 21:27 | 55.56703 | 12.87013 | 7725 ft | 268 kts | 130° |
| 2026-05-07 21:28 | 55.55453 | 12.89496 | 8621 ft | 273 kts | 130° |
| 2026-05-07 21:28 | 55.54209 | 12.91980 | 9495 ft | 277 kts | 130° |
| 2026-05-07 21:28 | 55.52915 | 12.94570 | 10365 ft | 283 kts | 130° |
| 2026-05-07 21:28 | 55.51603 | 12.97200 | 10993 ft | 296 kts | 130° |
| 2026-05-07 21:29 | 55.50223 | 12.99970 | 11432 ft | 314 kts | 130° |
| 2026-05-07 21:29 | 55.48743 | 13.02937 | 11859 ft | 332 kts | 130° |
| 2026-05-07 21:29 | 55.47172 | 13.06084 | 12244 ft | 351 kts | 130° |
| 2026-05-07 21:29 | 55.45546 | 13.09334 | 12826 ft | 361 kts | 130° |
| 2026-05-07 21:30 | 55.43839 | 13.12742 | 13612 ft | 366 kts | 130° |
| 2026-05-07 21:30 | 55.42096 | 13.16215 | 14364 ft | 371 kts | 131° |
| 2026-05-07 21:30 | 55.40359 | 13.19674 | 15100 ft | 375 kts | 131° |
| 2026-05-07 21:30 | 55.38549 | 13.23273 | 15811 ft | 380 kts | 131° |
| 2026-05-07 21:31 | 55.36748 | 13.26849 | 16527 ft | 384 kts | 131° |
| 2026-05-07 21:31 | 55.34941 | 13.30432 | 17185 ft | 388 kts | 131° |
| 2026-05-07 21:31 | 55.33089 | 13.34097 | 17859 ft | 392 kts | 131° |
| 2026-05-07 21:31 | 55.31230 | 13.37770 | 18510 ft | 396 kts | 131° |
| 2026-05-07 21:32 | 55.29374 | 13.41431 | 19158 ft | 400 kts | 131° |
| 2026-05-07 21:32 | 55.27497 | 13.45130 | 19792 ft | 403 kts | 130° |
| 2026-05-07 21:32 | 55.25685 | 13.49038 | 20416 ft | 406 kts | 126° |
| 2026-05-07 21:32 | 55.24066 | 13.53158 | 21029 ft | 409 kts | 121° |
| 2026-05-07 21:33 | 55.22587 | 13.57617 | 21612 ft | 412 kts | 118° |
| 2026-05-07 21:33 | 55.21191 | 13.62060 | 22184 ft | 416 kts | 118° |
| 2026-05-07 21:33 | 55.19814 | 13.66464 | 22716 ft | 419 kts | 118° |
| 2026-05-07 21:33 | 55.18397 | 13.70977 | 23250 ft | 423 kts | 119° |
| 2026-05-07 21:34 | 55.16991 | 13.75439 | 23760 ft | 426 kts | 119° |
| 2026-05-07 21:34 | 55.15560 | 13.79965 | 24258 ft | 429 kts | 119° |
| 2026-05-07 21:34 | 55.14105 | 13.84553 | 24776 ft | 431 kts | 119° |
| 2026-05-07 21:34 | 55.12650 | 13.89128 | 25290 ft | 433 kts | 119° |
| 2026-05-07 21:35 | 55.11199 | 13.93681 | 25780 ft | 435 kts | 118° |
| 2026-05-07 21:35 | 55.09719 | 13.98319 | 26256 ft | 438 kts | 119° |
| 2026-05-07 21:35 | 55.08203 | 14.03055 | 26707 ft | 440 kts | 118° |
| 2026-05-07 21:35 | 55.06673 | 14.07825 | 27138 ft | 443 kts | 118° |
| 2026-05-07 21:36 | 55.05177 | 14.12675 | 27553 ft | 445 kts | 116° |
| 2026-05-07 21:36 | 55.03796 | 14.17629 | 27958 ft | 448 kts | 115° |
| 2026-05-07 21:36 | 55.02409 | 14.22656 | 28354 ft | 450 kts | 115° |
| 2026-05-07 21:36 | 55.01038 | 14.27620 | 28729 ft | 452 kts | 115° |
| 2026-05-07 21:37 | 54.99676 | 14.32540 | 29079 ft | 454 kts | 115° |
| 2026-05-07 21:37 | 54.98315 | 14.37442 | 29513 ft | 453 kts | 115° |
| 2026-05-07 21:37 | 54.96919 | 14.42462 | 30032 ft | 451 kts | 114° |
| 2026-05-07 21:37 | 54.95515 | 14.47496 | 30543 ft | 449 kts | 114° |
| 2026-05-07 21:38 | 54.94123 | 14.52474 | 31015 ft | 448 kts | 114° |
| 2026-05-07 21:38 | 54.92744 | 14.57402 | 31425 ft | 446 kts | 114° |
| 2026-05-07 21:38 | 54.91358 | 14.62340 | 31790 ft | 446 kts | 114° |
| 2026-05-07 21:38 | 54.89969 | 14.67281 | 32157 ft | 445 kts | 115° |
| 2026-05-07 21:39 | 54.88558 | 14.72289 | 32519 ft | 444 kts | 115° |
| 2026-05-07 21:39 | 54.87194 | 14.77122 | 32850 ft | 443 kts | 115° |
| 2026-05-07 21:39 | 54.85798 | 14.82059 | 33174 ft | 442 kts | 115° |
| 2026-05-07 21:39 | 54.84404 | 14.86972 | 33463 ft | 442 kts | 115° |
| 2026-05-07 21:40 | 54.83025 | 14.91822 | 33691 ft | 443 kts | 115° |
| 2026-05-07 21:40 | 54.81609 | 14.96715 | 33901 ft | 445 kts | 117° |
| 2026-05-07 21:40 | 54.80115 | 15.01569 | 34080 ft | 446 kts | 117° |
| 2026-05-07 21:40 | 54.78576 | 15.06471 | 34262 ft | 447 kts | 118° |
| 2026-05-07 21:41 | 54.77046 | 15.11335 | 34431 ft | 448 kts | 118° |
| 2026-05-07 21:41 | 54.75521 | 15.16194 | 34603 ft | 448 kts | 118° |
| 2026-05-07 21:41 | 54.74006 | 15.21022 | 34786 ft | 449 kts | 118° |
| 2026-05-07 21:41 | 54.72474 | 15.25905 | 34951 ft | 449 kts | 118° |
| 2026-05-07 21:42 | 54.70935 | 15.30802 | 35093 ft | 451 kts | 118° |
| 2026-05-07 21:42 | 54.69405 | 15.35663 | 35139 ft | 452 kts | 118° |
| 2026-05-07 21:42 | 54.66309 | 15.45464 | 35141 ft | 453 kts | 118° |
| 2026-05-07 21:43 | 54.63213 | 15.55232 | 35134 ft | 454 kts | 119° |
| 2026-05-07 21:43 | 54.59981 | 15.64924 | 35136 ft | 454 kts | 123° |
| 2026-05-07 21:44 | 54.56392 | 15.74072 | 35136 ft | 455 kts | 125° |
| 2026-05-07 21:44 | 54.52733 | 15.83301 | 35137 ft | 454 kts | 125° |
| 2026-05-07 21:45 | 54.49073 | 15.92506 | 35145 ft | 455 kts | 125° |
| 2026-05-07 21:45 | 54.45390 | 16.01731 | 35128 ft | 455 kts | 125° |
| 2026-05-07 21:46 | 54.41701 | 16.10944 | 35134 ft | 454 kts | 126° |
| 2026-05-07 21:46 | 54.38013 | 16.20116 | 35138 ft | 454 kts | 126° |
| 2026-05-07 21:47 | 54.34295 | 16.29331 | 35125 ft | 454 kts | 126° |
| 2026-05-07 21:47 | 54.30689 | 16.38406 | 35111 ft | 455 kts | 122° |
| 2026-05-07 21:48 | 54.27832 | 16.48063 | 35136 ft | 458 kts | 113° |
| 2026-05-07 21:48 | 54.25950 | 16.58611 | 35122 ft | 460 kts | 103° |
| 2026-05-07 21:49 | 54.25413 | 16.64048 | 34916 ft | 462 kts | 98° |
| 2026-05-07 21:49 | 54.25131 | 16.69567 | 34708 ft | 463 kts | 96° |
| 2026-05-07 21:49 | 54.24861 | 16.75055 | 34491 ft | 460 kts | 100° |
| 2026-05-07 21:49 | 54.24335 | 16.80394 | 34292 ft | 453 kts | 105° |
| 2026-05-07 21:50 | 54.23546 | 16.85673 | 34081 ft | 449 kts | 109° |
| 2026-05-07 21:50 | 54.22552 | 16.90648 | 33880 ft | 447 kts | 114° |
| 2026-05-07 21:50 | 54.21283 | 16.95671 | 33659 ft | 453 kts | 118° |
| 2026-05-07 21:50 | 54.19777 | 17.00525 | 33429 ft | 454 kts | 122° |
| 2026-05-07 21:51 | 54.18102 | 17.05172 | 33189 ft | 454 kts | 124° |
| 2026-05-07 21:51 | 54.16410 | 17.09755 | 32961 ft | 454 kts | 125° |
| 2026-05-07 21:51 | 54.14705 | 17.14347 | 32733 ft | 454 kts | 125° |
| 2026-05-07 21:51 | 54.13015 | 17.18899 | 32492 ft | 453 kts | 125° |
| 2026-05-07 21:52 | 54.11269 | 17.23596 | 32255 ft | 453 kts | 125° |
| 2026-05-07 21:52 | 54.09524 | 17.28287 | 32010 ft | 452 kts | 125° |
| 2026-05-07 21:52 | 54.07799 | 17.32918 | 31759 ft | 452 kts | 126° |
| 2026-05-07 21:52 | 54.06078 | 17.37532 | 31525 ft | 452 kts | 126° |
| 2026-05-07 21:53 | 54.04353 | 17.42147 | 31280 ft | 452 kts | 126° |
| 2026-05-07 21:53 | 54.02623 | 17.46776 | 31034 ft | 450 kts | 126° |
| 2026-05-07 21:53 | 54.00899 | 17.51376 | 30790 ft | 449 kts | 126° |
| 2026-05-07 21:53 | 53.99159 | 17.55997 | 30522 ft | 450 kts | 126° |
| 2026-05-07 21:54 | 53.97416 | 17.60628 | 30249 ft | 449 kts | 127° |
| 2026-05-07 21:54 | 53.95681 | 17.65228 | 29978 ft | 447 kts | 127° |
| 2026-05-07 21:54 | 53.93967 | 17.69758 | 29708 ft | 445 kts | 127° |
| 2026-05-07 21:54 | 53.92245 | 17.74306 | 29436 ft | 443 kts | 127° |
| 2026-05-07 21:55 | 53.90525 | 17.78845 | 29165 ft | 441 kts | 127° |
| 2026-05-07 21:55 | 53.88843 | 17.83276 | 28903 ft | 439 kts | 127° |
| 2026-05-07 21:55 | 53.87194 | 17.87609 | 28640 ft | 437 kts | 127° |
| 2026-05-07 21:55 | 53.85553 | 17.91911 | 28384 ft | 435 kts | 127° |
| 2026-05-07 21:56 | 53.83876 | 17.96300 | 28106 ft | 433 kts | 127° |
| 2026-05-07 21:56 | 53.82197 | 18.00690 | 27836 ft | 432 kts | 127° |
| 2026-05-07 21:56 | 53.80517 | 18.05078 | 27566 ft | 431 kts | 127° |
| 2026-05-07 21:56 | 53.78852 | 18.09413 | 27296 ft | 429 kts | 127° |
| 2026-05-07 21:57 | 53.77178 | 18.13766 | 27023 ft | 428 kts | 127° |
| 2026-05-07 21:57 | 53.75566 | 18.17949 | 26763 ft | 427 kts | 127° |
| 2026-05-07 21:57 | 53.73954 | 18.22127 | 26505 ft | 426 kts | 127° |
| 2026-05-07 21:57 | 53.72328 | 18.26335 | 26239 ft | 425 kts | 127° |
| 2026-05-07 21:58 | 53.70703 | 18.30532 | 25972 ft | 423 kts | 127° |
| 2026-05-07 21:58 | 53.69089 | 18.34692 | 25704 ft | 422 kts | 127° |
| 2026-05-07 21:58 | 53.67450 | 18.38915 | 25434 ft | 421 kts | 127° |
| 2026-05-07 21:58 | 53.65823 | 18.43100 | 25174 ft | 420 kts | 127° |
| 2026-05-07 21:59 | 53.64208 | 18.47243 | 24908 ft | 419 kts | 127° |
| 2026-05-07 21:59 | 53.62575 | 18.51430 | 24644 ft | 419 kts | 127° |
| 2026-05-07 21:59 | 53.60950 | 18.55584 | 24374 ft | 418 kts | 127° |
| 2026-05-07 21:59 | 53.59344 | 18.59687 | 24113 ft | 417 kts | 127° |
| 2026-05-07 22:00 | 53.57719 | 18.63833 | 23845 ft | 416 kts | 127° |
| 2026-05-07 22:00 | 53.56112 | 18.67923 | 23585 ft | 415 kts | 128° |
| 2026-05-07 22:00 | 53.54521 | 18.71964 | 23323 ft | 413 kts | 128° |
| 2026-05-07 22:00 | 53.52850 | 18.75798 | 23109 ft | 408 kts | 134° |
| 2026-05-07 22:01 | 53.50938 | 18.79263 | 23087 ft | 406 kts | 140° |
| 2026-05-07 22:01 | 53.48773 | 18.82398 | 23088 ft | 403 kts | 145° |
| 2026-05-07 22:01 | 53.46571 | 18.85255 | 23081 ft | 402 kts | 146° |
| 2026-05-07 22:01 | 53.44346 | 18.88097 | 23077 ft | 402 kts | 146° |
| 2026-05-07 22:02 | 53.42136 | 18.90916 | 23075 ft | 401 kts | 146° |
| 2026-05-07 22:02 | 53.39918 | 18.93746 | 23071 ft | 402 kts | 146° |
| 2026-05-07 22:02 | 53.37722 | 18.96547 | 23066 ft | 401 kts | 146° |
| 2026-05-07 22:02 | 53.35486 | 18.99400 | 23065 ft | 402 kts | 146° |
| 2026-05-07 22:03 | 53.33298 | 19.02189 | 23064 ft | 401 kts | 146° |
| 2026-05-07 22:03 | 53.31075 | 19.05021 | 23059 ft | 402 kts | 146° |
| 2026-05-07 22:03 | 53.28863 | 19.07835 | 23060 ft | 401 kts | 146° |
| 2026-05-07 22:03 | 53.26659 | 19.10637 | 23061 ft | 401 kts | 146° |
| 2026-05-07 22:04 | 53.24427 | 19.13469 | 23059 ft | 401 kts | 146° |
| 2026-05-07 22:04 | 53.22237 | 19.16244 | 23055 ft | 401 kts | 146° |
| 2026-05-07 22:04 | 53.19959 | 19.19122 | 23056 ft | 400 kts | 147° |
| 2026-05-07 22:04 | 53.17764 | 19.21881 | 23048 ft | 400 kts | 147° |
| 2026-05-07 22:05 | 53.15525 | 19.24691 | 23050 ft | 400 kts | 146° |
| 2026-05-07 22:05 | 53.13291 | 19.27487 | 23054 ft | 400 kts | 147° |
| 2026-05-07 22:05 | 53.11019 | 19.30329 | 23047 ft | 400 kts | 146° |
| 2026-05-07 22:05 | 53.08784 | 19.33125 | 23047 ft | 400 kts | 146° |
| 2026-05-07 22:06 | 53.06555 | 19.35908 | 23052 ft | 400 kts | 146° |
| 2026-05-07 22:06 | 53.04330 | 19.38682 | 23047 ft | 400 kts | 146° |
| 2026-05-07 22:06 | 53.02121 | 19.41435 | 23047 ft | 400 kts | 146° |
| 2026-05-07 22:06 | 52.99908 | 19.44188 | 23045 ft | 400 kts | 147° |
| 2026-05-07 22:07 | 52.97686 | 19.46948 | 23049 ft | 400 kts | 146° |
| 2026-05-07 22:07 | 52.95442 | 19.49731 | 23050 ft | 400 kts | 147° |
| 2026-05-07 22:07 | 52.93203 | 19.52528 | 23042 ft | 399 kts | 146° |
| 2026-05-07 22:07 | 52.90940 | 19.55357 | 23046 ft | 399 kts | 146° |
| 2026-05-07 22:08 | 52.88705 | 19.58151 | 23045 ft | 399 kts | 146° |
| 2026-05-07 22:08 | 52.86446 | 19.60971 | 23043 ft | 400 kts | 146° |
| 2026-05-07 22:08 | 52.84230 | 19.63731 | 23046 ft | 399 kts | 146° |
| 2026-05-07 22:08 | 52.82000 | 19.66504 | 23043 ft | 400 kts | 147° |
| 2026-05-07 22:09 | 52.79749 | 19.69299 | 23044 ft | 399 kts | 147° |
| 2026-05-07 22:09 | 52.77499 | 19.72091 | 23043 ft | 398 kts | 147° |
| 2026-05-07 22:09 | 52.75276 | 19.74844 | 22890 ft | 395 kts | 147° |
| 2026-05-07 22:09 | 52.73075 | 19.77564 | 22106 ft | 400 kts | 147° |
| 2026-05-07 22:10 | 52.70868 | 19.80427 | 21186 ft | 406 kts | 141° |
| 2026-05-07 22:10 | 52.69006 | 19.83807 | 20842 ft | 400 kts | 130° |
| 2026-05-07 22:10 | 52.67538 | 19.87576 | 20834 ft | 384 kts | 124° |
| 2026-05-07 22:10 | 52.66228 | 19.91340 | 20849 ft | 375 kts | 123° |
| 2026-05-07 22:11 | 52.64938 | 19.95081 | 20543 ft | 376 kts | 123° |
| 2026-05-07 22:11 | 52.63662 | 19.98769 | 20054 ft | 374 kts | 123° |
| 2026-05-07 22:11 | 52.62372 | 20.02484 | 19566 ft | 372 kts | 123° |
| 2026-05-07 22:11 | 52.61076 | 20.06204 | 19075 ft | 370 kts | 123° |
| 2026-05-07 22:12 | 52.59774 | 20.09927 | 18569 ft | 368 kts | 123° |
| 2026-05-07 22:12 | 52.58499 | 20.13573 | 18094 ft | 366 kts | 122° |
| 2026-05-07 22:12 | 52.57240 | 20.17167 | 17621 ft | 364 kts | 122° |
| 2026-05-07 22:12 | 52.55962 | 20.20808 | 17136 ft | 361 kts | 122° |
| 2026-05-07 22:13 | 52.54704 | 20.24389 | 16691 ft | 358 kts | 122° |
| 2026-05-07 22:13 | 52.53470 | 20.27894 | 16496 ft | 347 kts | 122° |
| 2026-05-07 22:13 | 52.52264 | 20.31319 | 16361 ft | 334 kts | 122° |
| 2026-05-07 22:13 | 52.51098 | 20.34627 | 16228 ft | 322 kts | 122° |
| 2026-05-07 22:14 | 52.49978 | 20.37833 | 15834 ft | 320 kts | 122° |
| 2026-05-07 22:14 | 52.48859 | 20.41052 | 15446 ft | 318 kts | 122° |
| 2026-05-07 22:14 | 52.47765 | 20.44195 | 15060 ft | 316 kts | 121° |
| 2026-05-07 22:14 | 52.46675 | 20.47326 | 14686 ft | 314 kts | 121° |
| 2026-05-07 22:15 | 52.45590 | 20.50439 | 14317 ft | 312 kts | 121° |
| 2026-05-07 22:15 | 52.44501 | 20.53559 | 13937 ft | 311 kts | 121° |
| 2026-05-07 22:15 | 52.43413 | 20.56671 | 13562 ft | 309 kts | 121° |
| 2026-05-07 22:15 | 52.42344 | 20.59724 | 13198 ft | 308 kts | 121° |
| 2026-05-07 22:16 | 52.41289 | 20.62734 | 12839 ft | 306 kts | 121° |
| 2026-05-07 22:16 | 52.40218 | 20.65788 | 12471 ft | 304 kts | 122° |
| 2026-05-07 22:16 | 52.39156 | 20.68811 | 12111 ft | 302 kts | 122° |
| 2026-05-07 22:16 | 52.38123 | 20.71745 | 11932 ft | 300 kts | 122° |
| 2026-05-07 22:17 | 52.37039 | 20.74820 | 11953 ft | 303 kts | 122° |
| 2026-05-07 22:17 | 52.35983 | 20.77810 | 11971 ft | 303 kts | 121° |
| 2026-05-07 22:17 | 52.34938 | 20.80768 | 11994 ft | 303 kts | 121° |
| 2026-05-07 22:17 | 52.33880 | 20.83762 | 11789 ft | 306 kts | 122° |
| 2026-05-07 22:18 | 52.32816 | 20.86766 | 11383 ft | 305 kts | 121° |
| 2026-05-07 22:18 | 52.30706 | 20.92716 | 10630 ft | 301 kts | 122° |
| 2026-05-07 22:18 | 52.29650 | 20.95687 | 10270 ft | 299 kts | 122° |
| 2026-05-07 22:19 | 52.28592 | 20.98658 | 9908 ft | 297 kts | 121° |
| 2026-05-07 22:19 | 52.27529 | 21.01507 | 9549 ft | 293 kts | 129° |
| 2026-05-07 22:19 | 52.26099 | 21.03758 | 9197 ft | 288 kts | 148° |
| 2026-05-07 22:19 | 52.24359 | 21.05371 | 8850 ft | 285 kts | 154° |
| 2026-05-07 22:20 | 52.22613 | 21.06827 | 8503 ft | 283 kts | 155° |
| 2026-05-07 22:20 | 52.20850 | 21.08294 | 8154 ft | 281 kts | 154° |
| 2026-05-07 22:20 | 52.19134 | 21.09742 | 7879 ft | 276 kts | 154° |
| 2026-05-07 22:20 | 52.17486 | 21.11152 | 7803 ft | 263 kts | 154° |
| 2026-05-07 22:21 | 52.15894 | 21.12519 | 7719 ft | 251 kts | 154° |
| 2026-05-07 22:21 | 52.14385 | 21.13824 | 7543 ft | 245 kts | 154° |
| 2026-05-07 22:21 | 52.12896 | 21.15125 | 7253 ft | 244 kts | 153° |
| 2026-05-07 22:21 | 52.11411 | 21.16429 | 6971 ft | 243 kts | 153° |
| 2026-05-07 22:22 | 52.09925 | 21.17731 | 6690 ft | 241 kts | 153° |
| 2026-05-07 22:22 | 52.08462 | 21.19011 | 6416 ft | 240 kts | 154° |
| 2026-05-07 22:22 | 52.06979 | 21.20305 | 6099 ft | 240 kts | 153° |
| 2026-05-07 22:22 | 52.05514 | 21.21584 | 5774 ft | 240 kts | 153° |
| 2026-05-07 22:23 | 52.04036 | 21.22873 | 5459 ft | 240 kts | 153° |
| 2026-05-07 22:23 | 52.02565 | 21.24153 | 5159 ft | 239 kts | 153° |
| 2026-05-07 22:23 | 52.01105 | 21.25426 | 4861 ft | 238 kts | 153° |
| 2026-05-07 22:23 | 51.99619 | 21.26562 | 4540 ft | 236 kts | 167° |
| 2026-05-07 22:24 | 51.98029 | 21.26374 | 4264 ft | 229 kts | 209° |
| 2026-05-07 22:24 | 51.96871 | 21.24656 | 4126 ft | 229 kts | 240° |
| 2026-05-07 22:24 | 51.96380 | 21.22265 | 3981 ft | 227 kts | 267° |
| 2026-05-07 22:24 | 51.96505 | 21.19707 | 3838 ft | 226 kts | 278° |
| 2026-05-07 22:25 | 51.96717 | 21.17197 | 3681 ft | 226 kts | 278° |
| 2026-05-07 22:25 | 51.96989 | 21.14697 | 3434 ft | 225 kts | 292° |
| 2026-05-07 22:25 | 51.97936 | 21.12752 | 3162 ft | 221 kts | 325° |
| 2026-05-07 22:25 | 51.99258 | 21.11571 | 3003 ft | 213 kts | 335° |
| 2026-05-07 22:26 | 52.00552 | 21.10606 | 2981 ft | 199 kts | 335° |
| 2026-05-07 22:26 | 52.01739 | 21.09667 | 3061 ft | 183 kts | 333° |
| 2026-05-07 22:26 | 52.02866 | 21.08721 | 3069 ft | 181 kts | 332° |
| 2026-05-07 22:26 | 52.03978 | 21.07756 | 2935 ft | 181 kts | 332° |
| 2026-05-07 22:27 | 52.05080 | 21.06786 | 2704 ft | 179 kts | 332° |
| 2026-05-07 22:27 | 52.06175 | 21.05821 | 2479 ft | 179 kts | 332° |
| 2026-05-07 22:27 | 52.07265 | 21.04861 | 2225 ft | 176 kts | 333° |
| 2026-05-07 22:27 | 52.08284 | 21.03965 | 1974 ft | 165 kts | 334° |
| 2026-05-07 22:28 | 52.09251 | 21.03116 | 1751 ft | 153 kts | 333° |
| 2026-05-07 22:28 | 52.10142 | 21.02333 | 1547 ft | 141 kts | 335° |
| 2026-05-07 22:28 | 52.10959 | 21.01618 | 1368 ft | 129 kts | 333° |
| 2026-05-07 22:28 | 52.11751 | 21.00928 | 1209 ft | 128 kts | 333° |
| 2026-05-07 22:29 | 52.12535 | 21.00241 | 1043 ft | 128 kts | 334° |
| 2026-05-07 22:29 | 52.13310 | 20.99564 | 877 ft | 127 kts | 334° |
| 2026-05-07 22:29 | 52.14093 | 20.98877 | 704 ft | 127 kts | 335° |
| 2026-05-07 22:29 | 52.14865 | 20.98202 | 531 ft | 127 kts | 335° |
| 2026-05-07 22:30 | 52.15642 | 20.97528 | 385 ft | 125 kts | 334° |
| 2026-05-07 22:30 | 52.16325 | 20.96933 | 366 ft | 90 kts | 332° |
| 2026-05-07 22:30 | 52.16725 | 20.96583 | 366 ft | 43 kts | 334° |
| 2026-05-07 22:30 | 52.16939 | 20.96509 | 366 ft | 21 kts | 0° |
| 2026-05-07 22:31 | 52.17044 | 20.96516 | 366 ft | 10 kts | 8° |
| 2026-05-07 22:31 | 52.17092 | 20.96582 | 366 ft | 8 kts | 73° |
| 2026-05-07 22:31 | 52.17117 | 20.96668 | 366 ft | 8 kts | 60° |
| 2026-05-07 22:31 | 52.17149 | 20.96756 | 366 ft | 9 kts | 59° |
| 2026-05-07 22:32 | 52.17159 | 20.96838 | 366 ft | 5 kts | 128° |
| 2026-05-07 22:32 | 52.17131 | 20.96867 | 366 ft | 5 kts | 153° |
| 2026-05-07 22:32 | 52.17093 | 20.96897 | 366 ft | 6 kts | 154° |
| 2026-05-07 22:32 | 52.17071 | 20.96938 | 366 ft | 4 kts | 58° |
| 2026-05-07 22:33 | 52.17078 | 20.96973 | 366 ft | 2 kts | 84° |
| 2026-05-07 22:33 | 52.17084 | 20.97009 | 366 ft | 3 kts | 74° |
| 2026-05-07 22:33 | 52.17087 | 20.97028 | 366 ft | 0 kts | 73° |
| 2026-05-07 22:33 | 52.17090 | 20.97041 | 366 ft | 1 kts | 73° |
| 2026-05-07 22:34 | 52.17091 | 20.97051 | 366 ft | 0 kts | 73° |
| 2026-05-07 22:34 | 52.17092 | 20.97054 | 366 ft | 0 kts | 73° |
| 2026-05-07 22:34 | 52.17094 | 20.97065 | 366 ft | 1 kts | 73° |
| 2026-05-07 22:34 | 52.17094 | 20.97067 | 366 ft | 0 kts | 73° |